createdAt,value
2017-02-23T00:00:31.542Z,0
2017-02-23T00:01:42.228Z,0
2017-02-23T00:02:52.552Z,0
2017-02-23T00:04:03.261Z,0
2017-02-23T00:05:13.973Z,0
2017-02-23T00:06:24.679Z,0
2017-02-23T00:07:35.367Z,0
2017-02-23T00:08:46.086Z,0
2017-02-23T00:09:56.784Z,0
2017-02-23T00:11:09.479Z,0
2017-02-23T00:12:19.780Z,0
2017-02-23T00:13:30.504Z,0
2017-02-23T00:14:41.206Z,0
2017-02-23T00:15:51.895Z,0
2017-02-23T00:17:02.620Z,0
2017-02-23T00:18:12.910Z,0
2017-02-23T00:19:23.605Z,0
2017-02-23T00:20:34.310Z,0
2017-02-23T00:21:45.003Z,0
2017-02-23T00:22:55.711Z,0
2017-02-23T00:24:06.414Z,0
2017-02-23T00:25:16.707Z,0
2017-02-23T00:26:27.422Z,0
2017-02-23T00:27:38.135Z,0
2017-02-23T00:28:48.835Z,0
2017-02-23T00:29:59.523Z,0
2017-02-23T00:31:09.830Z,0
2017-02-23T00:32:19.735Z,0
2017-02-23T00:33:30.433Z,0
2017-02-23T00:34:41.140Z,0
2017-02-23T00:35:51.828Z,0
2017-02-23T00:37:02.131Z,0
2017-02-23T00:38:12.467Z,0
2017-02-23T00:39:23.181Z,0
2017-02-23T00:40:33.971Z,0
2017-02-23T00:41:44.686Z,0
2017-02-23T00:42:54.986Z,0
2017-02-23T00:44:05.683Z,0
2017-02-23T00:45:16.378Z,0
2017-02-23T00:46:27.080Z,0
2017-02-23T00:47:37.771Z,0
2017-02-23T00:48:47.678Z,0
2017-02-23T00:49:58.365Z,0
2017-02-23T00:51:09.061Z,0
2017-02-23T00:52:19.360Z,0
2017-02-23T00:53:30.084Z,0
2017-02-23T00:54:40.799Z,0
2017-02-23T00:55:51.097Z,0
2017-02-23T00:57:01.800Z,0
2017-02-23T00:58:12.496Z,0
2017-02-23T00:59:23.198Z,0
2017-02-23T01:00:33.907Z,0
2017-02-23T01:01:44.617Z,0
2017-02-23T01:02:55.313Z,0
2017-02-23T01:04:06.021Z,0
2017-02-23T01:05:16.326Z,0
2017-02-23T01:06:27.022Z,0
2017-02-23T01:07:37.734Z,0
2017-02-23T01:08:48.425Z,0
2017-02-23T01:09:59.110Z,0
2017-02-23T01:11:09.801Z,0
2017-02-23T01:12:20.128Z,0
2017-02-23T01:13:30.822Z,0
2017-02-23T01:14:41.532Z,0
2017-02-23T01:15:52.215Z,0
2017-02-23T01:17:02.528Z,0
2017-02-23T01:18:13.219Z,0
2017-02-23T01:19:23.527Z,0
2017-02-23T01:20:34.237Z,0
2017-02-23T01:21:44.936Z,0
2017-02-23T01:22:55.630Z,0
2017-02-23T01:24:06.337Z,0
2017-02-23T01:25:17.032Z,0
2017-02-23T01:26:27.731Z,0
2017-02-23T01:27:38.418Z,0
2017-02-23T01:28:49.121Z,0
2017-02-23T01:29:59.834Z,0
2017-02-23T01:31:10.154Z,0
2017-02-23T01:32:20.488Z,0
2017-02-23T01:33:31.190Z,0
2017-02-23T01:34:41.881Z,0
2017-02-23T01:35:52.603Z,0
2017-02-23T01:37:03.306Z,0
2017-02-23T01:38:13.617Z,0
2017-02-23T01:39:24.333Z,0
2017-02-23T01:40:35.021Z,0
2017-02-23T01:41:45.733Z,0
2017-02-23T01:42:56.067Z,0
2017-02-23T01:44:06.784Z,0
2017-02-23T01:45:16.307Z,0
2017-02-23T01:46:26.609Z,0
2017-02-23T01:47:37.330Z,0
2017-02-23T01:48:47.638Z,0
2017-02-23T01:49:58.326Z,0
2017-02-23T01:51:09.029Z,0
2017-02-23T01:52:18.974Z,0
2017-02-23T01:53:29.668Z,0
2017-02-23T01:54:40.367Z,0
2017-02-23T01:55:51.061Z,0
2017-02-23T01:57:01.771Z,0
2017-02-23T01:58:12.482Z,0
2017-02-23T01:59:23.202Z,0
2017-02-23T02:00:33.885Z,0
2017-02-23T02:01:44.197Z,0
2017-02-23T02:02:54.492Z,0
2017-02-23T02:04:05.211Z,0
2017-02-23T02:05:15.516Z,0
2017-02-23T02:06:26.329Z,0
2017-02-23T02:07:36.774Z,0
2017-02-23T02:08:47.466Z,0
2017-02-23T02:09:57.773Z,0
2017-02-23T02:11:08.505Z,0
2017-02-23T02:12:19.215Z,0
2017-02-23T02:13:29.945Z,0
2017-02-23T02:14:40.647Z,0
2017-02-23T02:15:51.346Z,0
2017-02-23T02:17:02.039Z,0
2017-02-23T02:18:12.340Z,0
2017-02-23T02:19:22.640Z,0
2017-02-23T02:20:33.356Z,0
2017-02-23T02:21:44.055Z,0
2017-02-23T02:22:54.746Z,0
2017-02-23T02:24:05.456Z,0
2017-02-23T02:25:15.767Z,0
2017-02-23T02:26:26.481Z,0
2017-02-23T02:27:37.196Z,0
2017-02-23T02:28:47.902Z,0
2017-02-23T02:29:58.195Z,0
2017-02-23T02:31:08.904Z,0
2017-02-23T02:32:19.618Z,0
2017-02-23T02:33:30.333Z,0
2017-02-23T02:34:41.032Z,0
2017-02-23T02:35:51.727Z,0
2017-02-23T02:37:02.429Z,0
2017-02-23T02:38:12.735Z,0
2017-02-23T02:39:55.118Z,0
2017-02-23T02:41:05.812Z,0
2017-02-23T02:42:16.106Z,0
2017-02-23T02:43:26.844Z,0
2017-02-23T02:44:37.549Z,0
2017-02-23T02:45:47.852Z,0
2017-02-23T02:46:58.540Z,0
2017-02-23T02:48:08.835Z,0
2017-02-23T02:49:18.736Z,0
2017-02-23T02:50:29.427Z,0
2017-02-23T02:51:40.140Z,0
2017-02-23T02:52:50.844Z,0
2017-02-23T02:54:01.573Z,0
2017-02-23T02:55:11.888Z,0
2017-02-23T02:56:22.173Z,0
2017-02-23T02:57:32.875Z,0
2017-02-23T02:58:43.579Z,0
2017-02-23T02:59:54.273Z,0
2017-02-23T03:01:04.971Z,0
2017-02-23T03:02:14.878Z,0
2017-02-23T03:03:25.583Z,0
2017-02-23T03:04:36.296Z,0
2017-02-23T03:05:46.983Z,0
2017-02-23T03:06:57.430Z,0
2017-02-23T03:08:07.788Z,0
2017-02-23T03:09:18.082Z,0
2017-02-23T03:10:28.798Z,0
2017-02-23T03:11:39.510Z,0
2017-02-23T03:12:50.217Z,0
2017-02-23T03:14:00.526Z,0
2017-02-23T03:15:11.219Z,0
2017-02-23T03:16:21.535Z,0
2017-02-23T03:17:32.231Z,0
2017-02-23T03:18:43.013Z,0
2017-02-23T03:19:52.912Z,0
2017-02-23T03:21:03.632Z,0
2017-02-23T03:22:14.370Z,0
2017-02-23T03:23:25.060Z,0
2017-02-23T03:24:35.746Z,0
2017-02-23T03:25:46.436Z,0
2017-02-23T03:26:57.162Z,0
2017-02-23T03:28:07.863Z,0
2017-02-23T03:29:17.767Z,0
2017-02-23T03:30:28.473Z,0
2017-02-23T03:31:39.152Z,0
2017-02-23T03:32:49.858Z,0
2017-02-23T03:34:00.569Z,0
2017-02-23T03:35:10.493Z,0
2017-02-23T03:36:20.785Z,0
2017-02-23T03:37:31.508Z,0
2017-02-23T03:38:42.196Z,0
2017-02-23T03:39:52.880Z,0
2017-02-23T03:41:03.574Z,0
2017-02-23T03:42:14.274Z,0
2017-02-23T03:43:24.983Z,0
2017-02-23T03:44:35.702Z,0
2017-02-23T03:45:46.413Z,0
2017-02-23T03:46:56.712Z,0
2017-02-23T03:48:07.398Z,0
2017-02-23T03:49:17.691Z,0
2017-02-23T03:50:28.001Z,0
2017-02-23T03:51:38.716Z,0
2017-02-23T03:52:48.673Z,0
2017-02-23T03:53:59.364Z,0
2017-02-23T03:55:09.667Z,0
2017-02-23T03:56:19.971Z,0
2017-02-23T03:57:30.667Z,0
2017-02-23T03:58:41.367Z,0
2017-02-23T03:59:52.081Z,0
2017-02-23T04:01:02.401Z,0
2017-02-23T04:02:12.698Z,0
2017-02-23T04:03:22.998Z,0
2017-02-23T04:04:33.698Z,0
2017-02-23T04:05:43.996Z,0
2017-02-23T04:06:54.700Z,0
2017-02-23T04:08:05.411Z,0
2017-02-23T04:09:15.311Z,0
2017-02-23T04:10:26.042Z,0
2017-02-23T04:11:36.738Z,0
2017-02-23T04:12:47.443Z,0
2017-02-23T04:13:58.144Z,0
2017-02-23T04:15:08.843Z,0
2017-02-23T04:16:19.136Z,0
2017-02-23T04:17:29.061Z,0
2017-02-23T04:18:39.764Z,0
2017-02-23T04:19:50.476Z,0
2017-02-23T04:21:01.184Z,0
2017-02-23T04:22:11.884Z,0
2017-02-23T04:23:22.567Z,0
2017-02-23T04:24:33.269Z,0
2017-02-23T04:25:43.961Z,0
2017-02-23T04:26:54.268Z,0
2017-02-23T04:28:04.971Z,0
2017-02-23T04:29:15.270Z,0
2017-02-23T04:30:25.606Z,0
2017-02-23T04:31:36.309Z,0
2017-02-23T04:32:46.636Z,0
2017-02-23T04:33:57.325Z,0
2017-02-23T04:35:08.042Z,0
2017-02-23T04:36:17.989Z,0
2017-02-23T04:37:28.725Z,0
2017-02-23T04:38:39.410Z,0
2017-02-23T04:39:49.729Z,0
2017-02-23T04:41:00.420Z,0
2017-02-23T04:42:10.713Z,0
2017-02-23T04:43:21.032Z,0
2017-02-23T04:44:31.732Z,0
2017-02-23T04:45:42.447Z,0
2017-02-23T04:46:53.144Z,0
2017-02-23T04:48:03.853Z,0
2017-02-23T04:49:14.548Z,0
2017-02-23T04:50:25.251Z,0
2017-02-23T04:51:35.564Z,0
2017-02-23T04:52:46.258Z,0
2017-02-23T04:53:56.560Z,0
2017-02-23T04:55:07.244Z,0
2017-02-23T04:56:17.956Z,0
2017-02-23T04:57:28.658Z,0
2017-02-23T04:58:39.382Z,0
2017-02-23T04:59:49.275Z,0
2017-02-23T05:00:59.969Z,0
2017-02-23T05:02:10.672Z,0
2017-02-23T05:03:21.382Z,0
2017-02-23T05:04:32.076Z,0
2017-02-23T05:05:42.777Z,0
2017-02-23T05:06:52.284Z,0
2017-02-23T05:08:02.990Z,0
2017-02-23T05:09:13.282Z,0
2017-02-23T05:10:23.973Z,0
2017-02-23T05:11:34.269Z,0
2017-02-23T05:12:44.956Z,0
2017-02-23T05:13:55.677Z,0
2017-02-23T05:15:06.366Z,0
2017-02-23T05:16:17.077Z,0
2017-02-23T05:17:27.764Z,0
2017-02-23T05:18:38.457Z,0
2017-02-23T05:19:49.161Z,0
2017-02-23T05:20:59.885Z,0
2017-02-23T05:22:09.785Z,0
2017-02-23T05:23:20.068Z,0
2017-02-23T05:24:30.766Z,0
2017-02-23T05:25:41.470Z,0
2017-02-23T05:26:52.170Z,0
2017-02-23T05:28:02.482Z,0
2017-02-23T05:29:13.181Z,0
2017-02-23T05:30:23.881Z,0
2017-02-23T05:31:34.598Z,0
2017-02-23T05:32:45.295Z,0
2017-02-23T05:33:55.998Z,0
2017-02-23T05:35:06.706Z,0
2017-02-23T05:36:17.018Z,0
2017-02-23T05:37:27.320Z,0
2017-02-23T05:38:38.030Z,0
2017-02-23T05:39:48.683Z,0
2017-02-23T05:40:59.385Z,0
2017-02-23T05:42:10.093Z,0
2017-02-23T05:43:20.404Z,0
2017-02-23T05:44:31.126Z,0
2017-02-23T05:45:41.816Z,0
2017-02-23T05:46:52.133Z,0
2017-02-23T05:48:02.432Z,0
2017-02-23T05:49:13.127Z,0
2017-02-23T05:50:23.423Z,0
2017-02-23T05:51:34.121Z,0
2017-02-23T05:52:44.827Z,0
2017-02-23T05:53:55.122Z,4
2017-02-23T05:55:05.832Z,4
2017-02-23T05:56:16.534Z,0
2017-02-23T05:57:27.240Z,4
2017-02-23T05:58:37.967Z,4
2017-02-23T05:59:48.661Z,8
2017-02-23T06:00:59.361Z,4
2017-02-23T06:02:10.064Z,4
2017-02-23T06:03:20.758Z,8
2017-02-23T06:04:31.488Z,8
2017-02-23T06:05:42.177Z,12
2017-02-23T06:06:52.463Z,12
2017-02-23T06:08:02.777Z,12
2017-02-23T06:09:13.072Z,16
2017-02-23T06:10:23.762Z,20
2017-02-23T06:11:34.449Z,24
2017-02-23T06:12:45.142Z,28
2017-02-23T06:13:55.855Z,36
2017-02-23T06:15:06.563Z,40
2017-02-23T06:16:17.262Z,44
2017-02-23T06:17:27.973Z,52
2017-02-23T06:18:38.694Z,60
2017-02-23T06:19:49.014Z,72
2017-02-23T06:20:59.731Z,80
2017-02-23T06:22:10.435Z,92
2017-02-23T06:23:20.759Z,108
2017-02-23T06:24:31.054Z,120
2017-02-23T06:25:41.759Z,136
2017-02-23T06:26:52.077Z,152
2017-02-23T06:28:02.387Z,172
2017-02-23T06:29:12.723Z,192
2017-02-23T06:30:23.033Z,216
2017-02-23T06:31:33.399Z,236
2017-02-23T06:32:44.096Z,260
2017-02-23T06:33:54.803Z,288
2017-02-23T06:35:05.509Z,312
2017-02-23T06:36:16.204Z,344
2017-02-23T06:37:26.909Z,368
2017-02-23T06:38:37.600Z,404
2017-02-23T06:39:48.295Z,432
2017-02-23T06:40:59.003Z,464
2017-02-23T06:42:09.307Z,500
2017-02-23T06:43:19.594Z,536
2017-02-23T06:44:30.283Z,568
2017-02-23T06:45:40.983Z,608
2017-02-23T06:46:51.687Z,640
2017-02-23T06:48:02.414Z,680
2017-02-23T06:49:13.101Z,716
2017-02-23T06:50:23.794Z,756
2017-02-23T06:51:34.092Z,796
2017-02-23T06:52:44.393Z,836
2017-02-23T06:53:55.102Z,876
2017-02-23T06:55:05.413Z,916
2017-02-23T06:56:15.316Z,960
2017-02-23T06:57:25.622Z,1000
2017-02-23T06:58:36.315Z,1040
2017-02-23T06:59:46.617Z,1084
2017-02-23T07:00:57.311Z,1124
2017-02-23T07:02:07.611Z,1168
2017-02-23T07:03:17.910Z,1212
2017-02-23T07:04:28.637Z,1256
2017-02-23T07:05:39.335Z,1296
2017-02-23T07:06:49.634Z,1340
2017-02-23T07:07:59.942Z,1384
2017-02-23T07:09:10.248Z,1420
2017-02-23T07:10:20.547Z,1460
2017-02-23T07:11:31.254Z,1500
2017-02-23T07:12:41.971Z,1536
2017-02-23T07:13:52.689Z,1576
2017-02-23T07:15:03.378Z,1616
2017-02-23T07:16:13.677Z,1656
2017-02-23T07:17:24.390Z,1696
2017-02-23T07:18:35.077Z,1736
2017-02-23T07:19:48.067Z,1780
2017-02-23T07:20:58.762Z,1820
2017-02-23T07:22:09.475Z,1856
2017-02-23T07:23:19.772Z,1892
2017-02-23T07:24:30.471Z,1928
2017-02-23T07:25:41.165Z,1964
2017-02-23T07:26:51.062Z,2000
2017-02-23T07:28:01.766Z,2036
2017-02-23T07:29:12.464Z,2072
2017-02-23T07:30:23.167Z,2100
2017-02-23T07:31:33.086Z,2140
2017-02-23T07:32:43.386Z,2172
2017-02-23T07:33:54.084Z,2200
2017-02-23T07:35:04.811Z,2232
2017-02-23T07:36:15.106Z,2268
2017-02-23T07:37:25.807Z,2304
2017-02-23T07:38:36.519Z,2340
2017-02-23T07:39:46.857Z,2384
2017-02-23T07:40:57.561Z,2404
2017-02-23T07:42:07.877Z,2468
2017-02-23T07:43:18.579Z,2444
2017-02-23T07:44:29.281Z,2492
2017-02-23T07:45:39.587Z,2516
2017-02-23T07:46:50.274Z,2544
2017-02-23T07:48:00.593Z,2572
2017-02-23T07:49:11.313Z,2600
2017-02-23T07:50:22.014Z,2636
2017-02-23T07:51:32.301Z,2692
2017-02-23T07:52:42.993Z,2696
2017-02-23T07:53:53.317Z,2708
2017-02-23T07:55:04.023Z,2740
2017-02-23T07:56:14.326Z,2772
2017-02-23T07:57:25.020Z,2804
2017-02-23T07:58:35.741Z,2844
2017-02-23T07:59:46.454Z,2856
2017-02-23T08:00:57.148Z,2880
2017-02-23T08:02:07.850Z,2912
2017-02-23T08:03:18.180Z,2932
2017-02-23T08:04:28.890Z,2964
2017-02-23T08:05:39.182Z,2984
2017-02-23T08:06:49.476Z,3012
2017-02-23T08:07:59.774Z,3040
2017-02-23T08:09:10.071Z,3064
2017-02-23T08:10:19.977Z,3088
2017-02-23T08:11:30.294Z,3112
2017-02-23T08:12:40.991Z,3140
2017-02-23T08:13:51.682Z,3164
2017-02-23T08:15:02.383Z,3192
2017-02-23T08:16:12.690Z,3216
2017-02-23T08:17:22.994Z,3240
2017-02-23T08:18:33.833Z,3264
2017-02-23T08:19:44.542Z,3288
2017-02-23T08:20:55.257Z,3316
2017-02-23T08:22:05.958Z,3340
2017-02-23T08:23:16.263Z,3364
2017-02-23T08:24:26.956Z,3388
2017-02-23T08:25:36.852Z,3412
2017-02-23T08:26:47.562Z,3440
2017-02-23T08:27:57.865Z,3464
2017-02-23T08:29:08.569Z,3488
2017-02-23T08:30:18.869Z,3512
2017-02-23T08:31:29.593Z,3540
2017-02-23T08:32:40.277Z,3564
2017-02-23T08:33:50.989Z,3588
2017-02-23T08:35:01.711Z,3616
2017-02-23T08:36:12.029Z,3636
2017-02-23T08:37:22.727Z,3664
2017-02-23T08:38:33.446Z,3684
2017-02-23T08:39:43.735Z,3712
2017-02-23T08:40:54.426Z,3736
2017-02-23T08:42:04.745Z,3764
2017-02-23T08:43:15.438Z,3788
2017-02-23T08:44:26.156Z,3812
2017-02-23T08:45:36.850Z,3840
2017-02-23T08:46:47.552Z,3868
2017-02-23T08:47:57.866Z,3892
2017-02-23T08:49:08.555Z,3916
2017-02-23T08:50:19.261Z,3948
2017-02-23T08:51:29.960Z,3972
2017-02-23T08:52:40.682Z,4000
2017-02-23T08:53:50.968Z,4024
2017-02-23T08:55:01.275Z,4052
2017-02-23T08:56:11.191Z,4080
2017-02-23T08:57:21.883Z,4108
2017-02-23T08:58:32.600Z,4136
2017-02-23T08:59:43.301Z,4164
2017-02-23T09:00:54.004Z,4196
2017-02-23T09:02:04.767Z,4228
2017-02-23T09:03:14.691Z,4260
2017-02-23T09:04:24.988Z,4288
2017-02-23T09:05:35.293Z,4316
2017-02-23T09:06:46.004Z,4348
2017-02-23T09:07:56.708Z,4376
2017-02-23T09:09:07.406Z,4412
2017-02-23T09:10:18.106Z,4440
2017-02-23T09:11:28.815Z,4472
2017-02-23T09:12:39.112Z,4504
2017-02-23T09:13:49.833Z,4540
2017-02-23T09:15:00.555Z,4576
2017-02-23T09:16:10.852Z,4600
2017-02-23T09:17:21.571Z,4636
2017-02-23T09:18:32.289Z,4664
2017-02-23T09:19:42.982Z,4696
2017-02-23T09:20:53.674Z,4732
2017-02-23T09:22:04.367Z,4760
2017-02-23T09:23:14.674Z,4792
2017-02-23T09:24:25.382Z,4824
2017-02-23T09:25:36.159Z,4864
2017-02-23T09:26:46.855Z,4892
2017-02-23T09:27:57.555Z,4916
2017-02-23T09:29:08.256Z,4948
2017-02-23T09:30:18.985Z,4980
2017-02-23T09:31:29.285Z,5012
2017-02-23T09:32:39.589Z,5036
2017-02-23T09:33:50.345Z,5072
2017-02-23T09:35:01.087Z,5100
2017-02-23T09:36:11.394Z,5128
2017-02-23T09:37:22.111Z,5160
2017-02-23T09:38:32.822Z,5184
2017-02-23T09:39:43.520Z,5220
2017-02-23T09:40:53.422Z,5260
2017-02-23T09:42:04.134Z,5280
2017-02-23T09:43:14.831Z,5312
2017-02-23T09:44:25.540Z,5344
2017-02-23T09:45:36.231Z,5388
2017-02-23T09:46:46.936Z,5416
2017-02-23T09:47:57.654Z,5452
2017-02-23T09:49:08.363Z,5480
2017-02-23T09:50:18.265Z,5508
2017-02-23T09:51:28.969Z,5540
2017-02-23T09:52:38.898Z,5580
2017-02-23T09:53:49.596Z,5620
2017-02-23T09:55:00.324Z,5648
2017-02-23T09:56:10.629Z,5672
2017-02-23T09:57:20.534Z,5728
2017-02-23T09:58:31.235Z,5760
2017-02-23T09:59:41.928Z,5792
2017-02-23T10:00:52.248Z,5804
2017-02-23T10:02:02.989Z,5840
2017-02-23T10:03:13.283Z,5876
2017-02-23T10:04:23.973Z,5912
2017-02-23T10:05:34.690Z,5948
2017-02-23T10:06:45.384Z,5984
2017-02-23T10:07:56.081Z,6004
2017-02-23T10:09:06.769Z,6040
2017-02-23T10:10:17.477Z,6076
2017-02-23T10:11:28.164Z,6100
2017-02-23T10:12:38.855Z,6116
2017-02-23T10:13:48.758Z,6076
2017-02-23T10:14:59.447Z,6100
2017-02-23T10:16:10.152Z,6120
2017-02-23T10:17:20.861Z,6136
2017-02-23T10:18:31.558Z,6168
2017-02-23T10:19:42.256Z,6188
2017-02-23T10:20:52.956Z,6220
2017-02-23T10:22:03.666Z,6252
2017-02-23T10:23:13.969Z,6284
2017-02-23T10:24:24.277Z,6316
2017-02-23T10:25:34.584Z,6344
2017-02-23T10:26:45.297Z,6380
2017-02-23T10:27:55.992Z,6408
2017-02-23T10:29:06.706Z,6436
2017-02-23T10:30:17.431Z,6460
2017-02-23T10:31:28.132Z,6484
2017-02-23T10:32:38.846Z,6504
2017-02-23T10:33:49.566Z,6532
2017-02-23T10:34:59.874Z,6548
2017-02-23T10:36:10.566Z,6560
2017-02-23T10:37:20.873Z,6584
2017-02-23T10:38:31.562Z,6588
2017-02-23T10:39:41.866Z,6612
2017-02-23T10:40:52.570Z,6620
2017-02-23T10:42:03.296Z,6632
2017-02-23T10:43:13.990Z,6656
2017-02-23T10:44:24.285Z,6660
2017-02-23T10:45:34.991Z,6676
2017-02-23T10:46:45.696Z,6688
2017-02-23T10:47:56.395Z,6704
2017-02-23T10:49:07.116Z,6712
2017-02-23T10:50:17.031Z,6732
2017-02-23T10:51:27.727Z,6752
2017-02-23T10:52:38.444Z,6768
2017-02-23T10:53:49.138Z,6784
2017-02-23T10:54:59.840Z,6796
2017-02-23T10:56:10.168Z,6812
2017-02-23T10:57:20.469Z,6836
2017-02-23T10:58:31.173Z,6856
2017-02-23T10:59:41.885Z,6888
2017-02-23T11:00:52.216Z,6916
2017-02-23T11:02:02.905Z,6936
2017-02-23T11:03:13.615Z,6964
2017-02-23T11:04:24.323Z,7020
2017-02-23T11:05:35.029Z,7240
2017-02-23T11:06:45.751Z,12812
2017-02-23T11:07:56.451Z,33792
2017-02-23T11:09:06.775Z,41184
2017-02-23T11:10:17.152Z,40608
2017-02-23T11:11:27.841Z,41664
2017-02-23T11:12:38.559Z,40864
2017-02-23T11:13:49.280Z,40544
2017-02-23T11:14:59.638Z,39808
2017-02-23T11:16:10.358Z,40896
2017-02-23T11:17:20.260Z,43104
2017-02-23T11:18:30.982Z,42464
2017-02-23T11:19:41.694Z,42080
2017-02-23T11:20:52.415Z,41696
2017-02-23T11:22:03.128Z,41312
2017-02-23T11:23:13.853Z,42496
2017-02-23T11:24:24.167Z,42112
2017-02-23T11:25:34.485Z,42592
2017-02-23T11:26:44.820Z,42816
2017-02-23T11:27:55.541Z,41216
2017-02-23T11:29:06.249Z,42400
2017-02-23T11:30:16.568Z,42816
2017-02-23T11:31:27.278Z,42080
2017-02-23T11:32:38.007Z,42848
2017-02-23T11:33:48.310Z,41856
2017-02-23T11:34:59.038Z,42976
2017-02-23T11:36:09.377Z,39904
2017-02-23T11:37:19.702Z,41504
2017-02-23T11:38:30.407Z,43360
2017-02-23T11:39:41.150Z,43040
2017-02-23T11:40:51.853Z,43360
2017-02-23T11:42:02.199Z,43392
2017-02-23T11:43:12.522Z,41184
2017-02-23T11:44:22.830Z,42016
2017-02-23T11:45:33.575Z,40992
2017-02-23T11:46:44.297Z,40928
2017-02-23T11:47:54.618Z,43264
2017-02-23T11:49:05.344Z,42816
2017-02-23T11:50:15.674Z,42464
2017-02-23T11:51:25.993Z,41536
2017-02-23T11:52:36.717Z,41024
2017-02-23T11:53:47.425Z,43200
2017-02-23T11:54:57.762Z,44288
2017-02-23T11:56:08.075Z,43072
2017-02-23T11:57:18.801Z,44544
2017-02-23T11:58:29.527Z,44064
2017-02-23T11:59:40.266Z,45760
2017-02-23T12:00:50.974Z,46592
2017-02-23T12:02:01.690Z,46176
2017-02-23T12:03:12.014Z,49120
2017-02-23T12:04:22.347Z,50528
2017-02-23T12:05:33.075Z,47168
2017-02-23T12:06:43.402Z,41728
2017-02-23T12:07:54.140Z,32832
2017-02-23T12:09:04.896Z,27360
2017-02-23T12:10:15.240Z,24640
2017-02-23T12:11:25.955Z,22144
2017-02-23T12:12:36.680Z,20544
2017-02-23T12:13:47.395Z,19840
2017-02-23T12:14:58.102Z,19360
2017-02-23T12:16:08.868Z,19104
2017-02-23T12:17:19.195Z,18944
2017-02-23T12:18:29.927Z,18784
2017-02-23T12:19:40.657Z,18624
2017-02-23T12:20:51.372Z,18560
2017-02-23T12:22:02.111Z,18560
2017-02-23T12:23:12.448Z,18528
2017-02-23T12:24:23.163Z,18528
2017-02-23T12:25:33.885Z,18528
2017-02-23T12:26:44.640Z,18624
2017-02-23T12:27:54.961Z,18656
2017-02-23T12:29:05.293Z,18656
2017-02-23T12:30:16.012Z,18784
2017-02-23T12:31:26.744Z,18912
2017-02-23T12:32:37.089Z,18944
2017-02-23T12:33:47.823Z,18912
2017-02-23T12:34:58.563Z,18976
2017-02-23T12:36:08.887Z,19136
2017-02-23T12:37:18.432Z,19968
2017-02-23T12:38:28.774Z,20768
2017-02-23T12:39:38.717Z,20192
2017-02-23T12:40:49.436Z,19840
2017-02-23T12:41:59.753Z,19744
2017-02-23T12:43:10.508Z,19616
2017-02-23T12:44:21.252Z,19552
2017-02-23T12:45:31.589Z,19648
2017-02-23T12:46:42.317Z,19776
2017-02-23T12:47:52.678Z,19808
2017-02-23T12:49:03.005Z,19712
2017-02-23T12:50:13.741Z,19712
2017-02-23T12:51:24.464Z,19648
2017-02-23T12:52:35.099Z,19488
2017-02-23T12:53:45.809Z,19520
2017-02-23T12:54:56.591Z,19584
2017-02-23T12:56:06.918Z,19488
2017-02-23T12:57:16.874Z,19616
2017-02-23T12:58:27.621Z,19744
2017-02-23T12:59:38.346Z,19808
2017-02-23T13:00:49.078Z,19776
2017-02-23T13:01:59.796Z,19808
2017-02-23T13:03:10.530Z,19872
2017-02-23T13:04:20.861Z,20000
2017-02-23T13:05:31.598Z,20032
2017-02-23T13:06:42.339Z,20128
2017-02-23T13:07:53.074Z,20064
2017-02-23T13:09:03.799Z,20032
2017-02-23T13:10:14.125Z,20192
2017-02-23T13:11:24.440Z,20000
2017-02-23T13:12:35.161Z,17632
2017-02-23T13:13:45.890Z,16480
2017-02-23T13:14:56.601Z,16832
2017-02-23T13:16:07.318Z,15020
2017-02-23T13:17:18.047Z,14384
2017-02-23T13:18:28.769Z,14908
2017-02-23T13:19:39.498Z,14804
2017-02-23T13:20:49.440Z,13636
2017-02-23T13:22:00.149Z,13348
2017-02-23T13:23:10.874Z,13108
2017-02-23T13:24:21.185Z,10820
2017-02-23T13:25:31.900Z,8208
2017-02-23T13:26:42.658Z,7504
2017-02-23T13:27:52.996Z,7840
2017-02-23T13:29:03.730Z,8072
2017-02-23T13:30:14.055Z,8184
2017-02-23T13:31:24.385Z,9528
2017-02-23T13:32:35.129Z,11380
2017-02-23T13:33:45.852Z,10608
2017-02-23T13:34:56.197Z,10712
2017-02-23T13:36:06.931Z,12316
2017-02-23T13:37:17.643Z,12264
2017-02-23T13:38:28.367Z,9604
2017-02-23T13:39:39.089Z,9328
2017-02-23T13:40:49.809Z,11472
2017-02-23T13:42:00.525Z,12028
2017-02-23T13:43:11.252Z,8772
2017-02-23T13:44:21.578Z,5928
2017-02-23T13:45:32.317Z,5472
2017-02-23T13:46:43.028Z,6272
2017-02-23T13:47:52.971Z,10004
2017-02-23T13:49:03.692Z,17888
2017-02-23T13:50:14.011Z,13968
2017-02-23T13:51:24.748Z,11628
2017-02-23T13:52:35.462Z,9836
2017-02-23T13:53:46.192Z,7316
2017-02-23T13:54:55.737Z,10372
2017-02-23T13:56:06.452Z,13596
2017-02-23T13:57:17.159Z,10744
2017-02-23T13:58:27.878Z,9368
2017-02-23T13:59:38.576Z,9196
2017-02-23T14:00:49.297Z,9584
2017-02-23T14:01:59.609Z,8392
2017-02-23T14:03:10.334Z,6588
2017-02-23T14:04:21.081Z,5452
2017-02-23T14:05:31.389Z,7632
2017-02-23T14:06:42.090Z,10272
2017-02-23T14:07:52.406Z,11244
2017-02-23T14:09:02.712Z,14624
2017-02-23T14:10:13.027Z,15776
2017-02-23T14:11:23.335Z,20032
2017-02-23T14:12:34.037Z,22592
2017-02-23T14:13:44.759Z,13308
2017-02-23T14:14:55.475Z,6180
2017-02-23T14:16:05.806Z,4476
2017-02-23T14:17:16.548Z,4416
2017-02-23T14:18:27.252Z,5784
2017-02-23T14:19:37.983Z,12528
2017-02-23T14:20:48.698Z,7864
2017-02-23T14:21:59.412Z,6920
2017-02-23T14:23:09.748Z,9152
2017-02-23T14:24:20.475Z,6332
2017-02-23T14:25:31.191Z,6472
2017-02-23T14:26:41.886Z,8020
2017-02-23T14:27:52.584Z,7760
2017-02-23T14:29:03.290Z,4888
2017-02-23T14:30:13.999Z,7572
2017-02-23T14:31:24.322Z,14272
2017-02-23T14:32:35.046Z,16928
2017-02-23T14:33:45.761Z,20000
2017-02-23T14:34:56.103Z,18752
2017-02-23T14:36:06.484Z,10824
2017-02-23T14:37:16.794Z,14016
2017-02-23T14:38:27.092Z,9040
2017-02-23T14:39:37.796Z,12180
2017-02-23T14:40:48.519Z,11880
2017-02-23T14:41:58.824Z,8560
2017-02-23T14:43:09.145Z,6656
2017-02-23T14:44:19.462Z,6308
2017-02-23T14:45:30.193Z,5852
2017-02-23T14:46:40.896Z,7264
2017-02-23T14:47:51.638Z,8312
2017-02-23T14:49:02.349Z,8348
2017-02-23T14:50:12.676Z,7960
2017-02-23T14:51:23.397Z,6548
2017-02-23T14:52:34.114Z,6384
2017-02-23T14:53:44.812Z,5596
2017-02-23T14:54:55.512Z,4052
2017-02-23T14:56:06.228Z,4628
2017-02-23T14:57:16.928Z,5864
2017-02-23T14:58:27.241Z,7476
2017-02-23T14:59:37.943Z,7220
2017-02-23T15:00:48.663Z,6540
2017-02-23T15:01:59.379Z,7104
2017-02-23T15:03:10.118Z,6152
2017-02-23T15:04:20.418Z,7032
2017-02-23T15:05:31.134Z,10624
2017-02-23T15:06:41.840Z,7480
2017-02-23T15:07:52.548Z,6236
2017-02-23T15:09:03.278Z,6652
2017-02-23T15:10:13.595Z,7000
2017-02-23T15:11:23.905Z,7524
2017-02-23T15:12:34.210Z,4844
2017-02-23T15:13:44.932Z,3260
2017-02-23T15:14:55.657Z,3676
2017-02-23T15:16:06.356Z,3876
2017-02-23T15:17:16.671Z,3272
2017-02-23T15:18:27.372Z,3084
2017-02-23T15:19:37.715Z,3044
2017-02-23T15:20:48.418Z,2936
2017-02-23T15:21:59.175Z,2916
2017-02-23T15:23:09.883Z,2824
2017-02-23T15:24:19.787Z,2772
2017-02-23T15:25:30.487Z,2780
2017-02-23T15:26:40.799Z,2788
2017-02-23T15:27:51.500Z,2788
2017-02-23T15:29:01.809Z,2712
2017-02-23T15:30:12.118Z,2724
2017-02-23T15:31:22.022Z,2780
2017-02-23T15:32:32.337Z,2788
2017-02-23T15:33:43.030Z,2852
2017-02-23T15:34:53.330Z,2752
2017-02-23T15:36:02.868Z,2604
2017-02-23T15:37:13.560Z,2488
2017-02-23T15:38:24.267Z,2412
2017-02-23T15:39:34.979Z,2360
2017-02-23T15:40:45.688Z,2388
2017-02-23T15:41:55.987Z,2544
2017-02-23T15:43:06.308Z,2912
2017-02-23T15:44:16.605Z,3500
2017-02-23T15:45:27.303Z,5372
2017-02-23T15:46:38.003Z,7292
2017-02-23T15:47:48.705Z,7136
2017-02-23T15:48:59.407Z,6960
2017-02-23T15:50:09.714Z,7124
2017-02-23T15:51:20.035Z,6896
2017-02-23T15:52:30.749Z,6400
2017-02-23T15:53:41.478Z,5868
2017-02-23T15:54:52.197Z,4872
2017-02-23T15:56:02.115Z,3628
2017-02-23T15:57:12.832Z,2508
2017-02-23T15:58:23.147Z,1816
2017-02-23T15:59:33.866Z,1492
2017-02-23T16:00:44.574Z,1348
2017-02-23T16:01:54.895Z,1276
2017-02-23T16:03:05.605Z,1228
2017-02-23T16:04:15.901Z,1176
2017-02-23T16:05:26.220Z,1128
2017-02-23T16:06:36.922Z,1076
2017-02-23T16:07:47.629Z,1024
2017-02-23T16:08:58.334Z,980
2017-02-23T16:10:08.653Z,936
2017-02-23T16:11:18.951Z,892
2017-02-23T16:12:29.257Z,844